createdAt,value
2017-12-20T00:00:59.784Z,17.4
2017-12-20T00:01:59.827Z,17.4
2017-12-20T00:02:59.801Z,17.4
2017-12-20T00:03:59.803Z,17.4
2017-12-20T00:04:59.796Z,17.4
2017-12-20T00:05:59.842Z,17.4
2017-12-20T00:06:59.801Z,17.4
2017-12-20T00:07:59.799Z,17.4
2017-12-20T00:08:59.793Z,17.4
2017-12-20T00:09:59.805Z,17.3
2017-12-20T00:10:59.877Z,17.3
2017-12-20T00:11:59.827Z,17.3
2017-12-20T00:12:59.802Z,17.3
2017-12-20T00:13:59.803Z,17.3
2017-12-20T00:14:59.806Z,17.3
2017-12-20T00:15:59.807Z,17.3
2017-12-20T00:16:59.792Z,17.3
2017-12-20T00:17:59.830Z,17.3
2017-12-20T00:18:59.775Z,17.3
2017-12-20T00:19:59.828Z,17.3
2017-12-20T00:20:59.811Z,17.3
2017-12-20T00:21:59.784Z,17.3
2017-12-20T00:22:59.804Z,17.3
2017-12-20T00:23:59.813Z,17.3
2017-12-20T00:24:59.811Z,17.3
2017-12-20T00:25:59.798Z,17.2
2017-12-20T00:26:59.789Z,17.3
2017-12-20T00:27:59.809Z,17.2
2017-12-20T00:28:59.821Z,17.2
2017-12-20T00:29:59.820Z,17.2
2017-12-20T00:30:59.810Z,17.2
2017-12-20T00:31:59.820Z,17.2
2017-12-20T00:32:59.799Z,17.2
2017-12-20T00:33:59.786Z,17.2
2017-12-20T00:34:59.795Z,17.2
2017-12-20T00:35:59.820Z,17.2
2017-12-20T00:36:59.784Z,17.2
2017-12-20T00:38:00.130Z,17.2
2017-12-20T00:38:59.791Z,17.2
2017-12-20T00:39:59.819Z,17.2
2017-12-20T00:40:59.812Z,17.2
2017-12-20T00:41:59.861Z,17.2
2017-12-20T00:42:59.836Z,17.2
2017-12-20T00:43:59.799Z,17.2
2017-12-20T00:44:59.818Z,17.2
2017-12-20T00:45:59.816Z,17.2
2017-12-20T00:46:59.803Z,17.2
2017-12-20T00:47:59.801Z,17.2
2017-12-20T00:48:59.800Z,17.2
2017-12-20T00:49:59.829Z,17.1
2017-12-20T00:50:59.810Z,17.2
2017-12-20T00:51:59.816Z,17.1
2017-12-20T00:52:59.835Z,17.1
2017-12-20T00:53:59.823Z,17.1
2017-12-20T00:54:59.800Z,17.1
2017-12-20T00:55:59.817Z,17.1
2017-12-20T00:56:59.820Z,17.1
2017-12-20T00:57:59.846Z,17.1
2017-12-20T00:58:59.843Z,17.1
2017-12-20T00:59:59.829Z,17.1
2017-12-20T01:00:59.815Z,17.1
2017-12-20T01:01:59.813Z,17.1
2017-12-20T01:02:59.802Z,17.1
2017-12-20T01:03:59.848Z,17.1
2017-12-20T01:04:59.798Z,17.1
2017-12-20T01:05:59.821Z,17.1
2017-12-20T01:06:59.816Z,17.1
2017-12-20T01:07:59.824Z,17.1
2017-12-20T01:08:59.865Z,17.1
2017-12-20T01:09:59.813Z,17.1
2017-12-20T01:10:59.822Z,17.1
2017-12-20T01:11:59.830Z,17.1
2017-12-20T01:12:59.879Z,17.1
2017-12-20T01:13:59.835Z,17.1
2017-12-20T01:14:59.805Z,17.1
2017-12-20T01:15:59.827Z,17.1
2017-12-20T01:16:59.825Z,17.1
2017-12-20T01:17:59.832Z,17.1
2017-12-20T01:18:59.853Z,17
2017-12-20T01:19:59.807Z,17
2017-12-20T01:20:59.831Z,17
2017-12-20T01:21:59.829Z,17
2017-12-20T01:22:59.836Z,17
2017-12-20T01:23:59.852Z,17
2017-12-20T01:24:59.831Z,17
2017-12-20T01:25:59.842Z,17
2017-12-20T01:26:59.806Z,17
2017-12-20T01:27:59.821Z,17
2017-12-20T01:28:59.832Z,17
2017-12-20T01:29:59.842Z,17
2017-12-20T01:30:59.834Z,17
2017-12-20T01:31:59.812Z,17
2017-12-20T01:32:59.810Z,17
2017-12-20T01:33:59.835Z,17
2017-12-20T01:34:59.836Z,17
2017-12-20T01:35:59.839Z,17
2017-12-20T01:36:59.839Z,17
2017-12-20T01:37:59.847Z,17
2017-12-20T01:38:59.862Z,17
2017-12-20T01:39:59.811Z,17
2017-12-20T01:40:59.820Z,17
2017-12-20T01:41:59.836Z,17
2017-12-20T01:42:59.827Z,17
2017-12-20T01:43:59.905Z,17
2017-12-20T01:44:59.841Z,17
2017-12-20T01:45:59.826Z,17
2017-12-20T01:46:59.844Z,17
2017-12-20T01:47:59.846Z,17
2017-12-20T01:48:59.858Z,16.9
2017-12-20T01:49:59.865Z,16.9
2017-12-20T01:50:59.833Z,16.9
2017-12-20T01:51:59.825Z,16.9
2017-12-20T01:52:59.836Z,16.9
2017-12-20T01:53:59.860Z,16.9
2017-12-20T01:54:59.831Z,16.9
2017-12-20T01:55:59.839Z,16.9
2017-12-20T01:56:59.844Z,16.9
2017-12-20T01:57:59.818Z,16.9
2017-12-20T01:58:59.854Z,16.9
2017-12-20T01:59:59.835Z,16.9
2017-12-20T02:00:59.864Z,16.9
2017-12-20T02:01:59.840Z,16.9
2017-12-20T02:02:59.845Z,16.9
2017-12-20T02:03:59.844Z,16.9
2017-12-20T02:04:59.849Z,16.9
2017-12-20T02:05:59.835Z,16.9
2017-12-20T02:06:59.829Z,16.9
2017-12-20T02:07:59.853Z,16.9
2017-12-20T02:08:59.845Z,16.9
2017-12-20T02:09:59.852Z,16.9
2017-12-20T02:10:59.868Z,16.9
2017-12-20T02:11:59.858Z,16.9
2017-12-20T02:12:59.872Z,16.9
2017-12-20T02:13:59.845Z,16.9
2017-12-20T02:14:59.925Z,16.9
2017-12-20T02:15:59.839Z,16.9
2017-12-20T02:16:59.847Z,16.9
2017-12-20T02:17:59.846Z,16.9
2017-12-20T02:18:59.839Z,16.9
2017-12-20T02:19:59.838Z,16.9
2017-12-20T02:20:59.825Z,16.8
2017-12-20T02:21:59.851Z,16.8
2017-12-20T02:22:59.858Z,16.8
2017-12-20T02:23:59.855Z,16.8
2017-12-20T02:24:59.864Z,16.8
2017-12-20T02:25:59.827Z,16.8
2017-12-20T02:26:59.890Z,16.8
2017-12-20T02:27:59.840Z,16.8
2017-12-20T02:28:59.825Z,16.8
2017-12-20T02:29:59.858Z,16.8
2017-12-20T02:30:59.849Z,16.8
2017-12-20T02:31:59.879Z,16.8
2017-12-20T02:32:59.841Z,16.8
2017-12-20T02:33:59.851Z,16.8
2017-12-20T02:34:59.858Z,16.8
2017-12-20T02:35:59.845Z,16.8
2017-12-20T02:37:00.164Z,16.8
2017-12-20T02:37:59.852Z,16.8
2017-12-20T02:38:59.848Z,16.8
2017-12-20T02:39:59.867Z,16.8
2017-12-20T02:40:59.861Z,16.8
2017-12-20T02:41:59.879Z,16.8
2017-12-20T02:42:59.837Z,16.8
2017-12-20T02:43:59.830Z,16.8
2017-12-20T02:44:59.853Z,16.8
2017-12-20T02:45:59.892Z,16.8
2017-12-20T02:46:59.839Z,16.8
2017-12-20T02:47:59.860Z,16.8
2017-12-20T02:48:59.830Z,16.8
2017-12-20T02:49:59.866Z,16.8
2017-12-20T02:50:59.845Z,16.8
2017-12-20T02:51:59.852Z,16.8
2017-12-20T02:52:59.838Z,16.7
2017-12-20T02:53:59.844Z,16.8
2017-12-20T02:54:59.873Z,16.7
2017-12-20T02:55:59.873Z,16.7
2017-12-20T02:56:59.845Z,16.7
2017-12-20T02:57:59.867Z,16.7
2017-12-20T02:59:00.000Z,16.7
2017-12-20T02:59:59.845Z,16.7
2017-12-20T03:00:59.840Z,16.7
2017-12-20T03:01:59.859Z,16.7
2017-12-20T03:02:59.841Z,16.7
2017-12-20T03:03:59.882Z,16.7
2017-12-20T03:04:59.846Z,16.7
2017-12-20T03:05:59.857Z,16.7
2017-12-20T03:06:59.874Z,16.7
2017-12-20T03:07:59.851Z,16.7
2017-12-20T03:08:59.856Z,16.7
2017-12-20T03:09:59.875Z,16.7
2017-12-20T03:10:59.846Z,16.7
2017-12-20T03:11:59.870Z,16.7
2017-12-20T03:12:59.854Z,16.7
2017-12-20T03:13:59.840Z,16.7
2017-12-20T03:14:59.865Z,16.7
2017-12-20T03:15:59.900Z,16.7
2017-12-20T03:16:59.916Z,16.7
2017-12-20T03:17:59.873Z,16.7
2017-12-20T03:18:59.884Z,16.7
2017-12-20T03:19:59.875Z,16.7
2017-12-20T03:20:59.886Z,16.7
2017-12-20T03:22:00.013Z,16.7
2017-12-20T03:22:59.869Z,16.7
2017-12-20T03:23:59.850Z,16.7
2017-12-20T03:24:59.871Z,16.7
2017-12-20T03:25:59.887Z,16.7
2017-12-20T03:26:59.891Z,16.7
2017-12-20T03:27:59.866Z,16.6
2017-12-20T03:28:59.880Z,16.6
2017-12-20T03:29:59.887Z,16.6
2017-12-20T03:30:59.883Z,16.6
2017-12-20T03:31:59.903Z,16.6
2017-12-20T03:32:59.876Z,16.6
2017-12-20T03:33:59.873Z,16.6
2017-12-20T03:34:59.872Z,16.6
2017-12-20T03:35:59.875Z,16.6
2017-12-20T03:36:59.902Z,16.6
2017-12-20T03:37:59.851Z,16.6
2017-12-20T03:38:59.869Z,16.6
2017-12-20T03:39:59.890Z,16.6
2017-12-20T03:40:59.857Z,16.6
2017-12-20T03:41:59.908Z,16.6
2017-12-20T03:43:00.164Z,16.6
2017-12-20T03:43:59.863Z,16.6
2017-12-20T03:44:59.880Z,16.6
2017-12-20T03:45:59.857Z,16.6
2017-12-20T03:46:59.873Z,16.6
2017-12-20T03:47:59.952Z,16.6
2017-12-20T03:48:59.876Z,16.6
2017-12-20T03:49:59.874Z,16.6
2017-12-20T03:50:59.878Z,16.6
2017-12-20T03:51:59.883Z,16.6
2017-12-20T03:53:00.060Z,16.6
2017-12-20T03:53:59.858Z,16.6
2017-12-20T03:54:59.882Z,16.6
2017-12-20T03:55:59.886Z,16.6
2017-12-20T03:56:59.878Z,16.6
2017-12-20T03:57:59.885Z,16.6
2017-12-20T03:58:59.883Z,16.6
2017-12-20T03:59:59.881Z,16.6
2017-12-20T04:01:00.179Z,16.6
2017-12-20T04:01:59.854Z,16.6
2017-12-20T04:02:59.871Z,16.6
2017-12-20T04:03:59.861Z,16.6
2017-12-20T04:04:59.897Z,16.6
2017-12-20T04:05:59.893Z,16.5
2017-12-20T04:06:59.891Z,16.5
2017-12-20T04:07:59.889Z,16.5
2017-12-20T04:08:59.884Z,16.5
2017-12-20T04:09:59.891Z,16.5
2017-12-20T04:10:59.896Z,16.5
2017-12-20T04:11:59.904Z,16.5
2017-12-20T04:12:59.897Z,16.5
2017-12-20T04:13:59.893Z,16.5
2017-12-20T04:14:59.872Z,16.5
2017-12-20T04:15:59.909Z,16.5
2017-12-20T04:16:59.887Z,16.5
2017-12-20T04:17:59.888Z,16.5
2017-12-20T04:18:59.947Z,16.5
2017-12-20T04:19:59.904Z,16.5
2017-12-20T04:20:59.922Z,16.5
2017-12-20T04:21:59.884Z,16.5
2017-12-20T04:22:59.884Z,16.5
2017-12-20T04:23:59.902Z,16.5
2017-12-20T04:24:59.888Z,16.5
2017-12-20T04:25:59.863Z,16.5
2017-12-20T04:26:59.882Z,16.5
2017-12-20T04:27:59.920Z,16.5
2017-12-20T04:28:59.894Z,16.5
2017-12-20T04:29:59.896Z,16.5
2017-12-20T04:30:59.901Z,16.5
2017-12-20T04:31:59.897Z,16.5
2017-12-20T04:32:59.892Z,16.5
2017-12-20T04:33:59.866Z,16.5
2017-12-20T04:34:59.873Z,16.5
2017-12-20T04:35:59.923Z,16.5
2017-12-20T04:36:59.880Z,16.5
2017-12-20T04:37:59.879Z,16.5
2017-12-20T04:38:59.894Z,16.5
2017-12-20T04:39:59.888Z,16.5
2017-12-20T04:40:59.918Z,16.5
2017-12-20T04:41:59.875Z,16.5
2017-12-20T04:42:59.895Z,16.5
2017-12-20T04:43:59.903Z,16.5
2017-12-20T04:44:59.909Z,16.5
2017-12-20T04:46:00.040Z,16.5
2017-12-20T04:46:59.875Z,16.5
2017-12-20T04:47:59.897Z,16.5
2017-12-20T04:48:59.905Z,16.5
2017-12-20T04:49:59.973Z,16.5
2017-12-20T04:50:59.919Z,16.5
2017-12-20T04:51:59.894Z,16.4
2017-12-20T04:52:59.893Z,16.4
2017-12-20T04:53:59.908Z,16.5
2017-12-20T04:54:59.907Z,16.4
2017-12-20T04:55:59.905Z,16.4
2017-12-20T04:56:59.899Z,16.4
2017-12-20T04:57:59.896Z,16.4
2017-12-20T04:58:59.901Z,16.4
2017-12-20T04:59:59.899Z,16.4
2017-12-20T05:00:59.883Z,16.4
2017-12-20T05:01:59.883Z,16.4
2017-12-20T05:02:59.937Z,16.4
2017-12-20T05:03:59.885Z,16.4
2017-12-20T05:04:59.906Z,16.4
2017-12-20T05:05:59.891Z,16.4
2017-12-20T05:06:59.900Z,16.4
2017-12-20T05:07:59.928Z,16.4
2017-12-20T05:08:59.902Z,16.4
2017-12-20T05:09:59.907Z,16.5
2017-12-20T05:10:59.907Z,16.5
2017-12-20T05:11:59.912Z,16.5
2017-12-20T05:12:59.934Z,16.5
2017-12-20T05:13:59.887Z,16.5
2017-12-20T05:14:59.884Z,16.5
2017-12-20T05:15:59.912Z,16.5
2017-12-20T05:16:59.908Z,16.5
2017-12-20T05:17:59.909Z,16.5
2017-12-20T05:18:59.936Z,16.5
2017-12-20T05:19:59.937Z,16.5
2017-12-20T05:20:59.960Z,16.5
2017-12-20T05:21:59.908Z,16.5
2017-12-20T05:22:59.896Z,16.5
2017-12-20T05:23:59.920Z,16.6
2017-12-20T05:24:59.920Z,16.6
2017-12-20T05:25:59.917Z,16.6
2017-12-20T05:26:59.892Z,16.6
2017-12-20T05:27:59.910Z,16.6
2017-12-20T05:28:59.951Z,16.6
2017-12-20T05:29:59.913Z,16.6
2017-12-20T05:30:59.901Z,16.7
2017-12-20T05:31:59.933Z,16.7
2017-12-20T05:32:59.898Z,16.7
2017-12-20T05:33:59.931Z,16.7
2017-12-20T05:34:59.943Z,16.7
2017-12-20T05:35:59.925Z,16.7
2017-12-20T05:36:59.922Z,16.8
2017-12-20T05:37:59.938Z,16.8
2017-12-20T05:38:59.897Z,16.8
2017-12-20T05:39:59.945Z,16.8
2017-12-20T05:40:59.904Z,16.8
2017-12-20T05:41:59.905Z,16.8
2017-12-20T05:42:59.921Z,16.9
2017-12-20T05:43:59.909Z,16.9
2017-12-20T05:44:59.938Z,16.9
2017-12-20T05:45:59.923Z,16.9
2017-12-20T05:46:59.899Z,16.9
2017-12-20T05:47:59.934Z,16.9
2017-12-20T05:48:59.936Z,16.9
2017-12-20T05:49:59.939Z,16.9
2017-12-20T05:50:59.903Z,17
2017-12-20T05:51:59.975Z,17
2017-12-20T05:52:59.907Z,17
2017-12-20T05:53:59.907Z,17
2017-12-20T05:54:59.948Z,17
2017-12-20T05:55:59.902Z,17
2017-12-20T05:56:59.909Z,17
2017-12-20T05:57:59.917Z,17
2017-12-20T05:58:59.926Z,17
2017-12-20T05:59:59.927Z,17
2017-12-20T06:00:59.932Z,17.1
2017-12-20T06:01:59.938Z,17.1
2017-12-20T06:02:59.955Z,17.1
2017-12-20T06:03:59.931Z,17.1
2017-12-20T06:04:59.921Z,17.1
2017-12-20T06:05:59.921Z,17.1
2017-12-20T06:06:59.944Z,17.1
2017-12-20T06:07:59.928Z,17.1
2017-12-20T06:08:59.924Z,17.1
2017-12-20T06:09:59.927Z,17.2
2017-12-20T06:10:59.934Z,17.2
2017-12-20T06:11:59.936Z,17.2
2017-12-20T06:12:59.932Z,17.2
2017-12-20T06:13:59.919Z,17.2
2017-12-20T06:14:59.944Z,17.2
2017-12-20T06:15:59.936Z,17.2
2017-12-20T06:16:59.918Z,17.2
2017-12-20T06:17:59.935Z,17.2
2017-12-20T06:18:59.952Z,17.2
2017-12-20T06:20:00.009Z,17.2
2017-12-20T06:20:59.916Z,17.3
2017-12-20T06:21:59.917Z,17.3
2017-12-20T06:23:00.010Z,17.3
2017-12-20T06:23:59.942Z,17.3
2017-12-20T06:24:59.974Z,17.3
2017-12-20T06:25:59.960Z,17.3
2017-12-20T06:26:59.910Z,17.3
2017-12-20T06:27:59.929Z,17.3
2017-12-20T06:28:59.940Z,17.3
2017-12-20T06:29:59.953Z,17.3
2017-12-20T06:30:59.937Z,17.3
2017-12-20T06:31:59.913Z,17.3
2017-12-20T06:32:59.940Z,17.3
2017-12-20T06:33:59.938Z,17.3
2017-12-20T06:34:59.918Z,17.3
2017-12-20T06:35:59.952Z,17.3
2017-12-20T06:36:59.928Z,17.3
2017-12-20T06:37:59.913Z,17.3
2017-12-20T06:38:59.929Z,17.3
2017-12-20T06:39:59.937Z,17.3
2017-12-20T06:40:59.945Z,17.4
2017-12-20T06:41:59.927Z,17.3
2017-12-20T06:42:59.928Z,17.3
2017-12-20T06:43:59.961Z,17.3
2017-12-20T06:44:59.938Z,17.4
2017-12-20T06:45:59.928Z,17.3
2017-12-20T06:46:59.963Z,17.4
2017-12-20T06:47:59.938Z,17.3
2017-12-20T06:48:59.947Z,17.4
2017-12-20T06:49:59.943Z,17.4
2017-12-20T06:50:59.922Z,17.4
2017-12-20T06:51:59.935Z,17.4
2017-12-20T06:52:59.942Z,17.4
2017-12-20T06:54:00.042Z,17.4
2017-12-20T06:54:59.918Z,17.3
2017-12-20T06:55:59.945Z,17.3
2017-12-20T06:56:59.939Z,17.3
2017-12-20T06:57:59.924Z,17.3
2017-12-20T06:58:59.958Z,17.3
2017-12-20T06:59:59.954Z,17.3
2017-12-20T07:00:59.938Z,17.3
2017-12-20T07:01:59.957Z,17.3
2017-12-20T07:02:59.943Z,17.3
2017-12-20T07:04:00.298Z,17.4
2017-12-20T07:04:59.956Z,17.3
2017-12-20T07:05:59.952Z,17.3
2017-12-20T07:06:59.931Z,17.3
2017-12-20T07:07:59.950Z,17.3
2017-12-20T07:08:59.957Z,17.3
2017-12-20T07:09:59.993Z,17.3
2017-12-20T07:10:59.947Z,17.3
2017-12-20T07:11:59.996Z,17.3
2017-12-20T07:12:59.954Z,17.3
2017-12-20T07:13:59.959Z,17.3
2017-12-20T07:14:59.998Z,17.3
2017-12-20T07:15:59.948Z,17.3
2017-12-20T07:16:59.935Z,17.3
2017-12-20T07:17:59.953Z,17.3
2017-12-20T07:18:59.958Z,17.3
2017-12-20T07:20:00.011Z,17.3
2017-12-20T07:20:59.958Z,17.3
2017-12-20T07:21:59.955Z,17.3
2017-12-20T07:22:59.958Z,17.3
2017-12-20T07:23:59.937Z,17.3
2017-12-20T07:25:00.023Z,17.3
2017-12-20T07:25:59.955Z,17.3
2017-12-20T07:26:59.974Z,17.3
2017-12-20T07:27:59.941Z,17.3
2017-12-20T07:28:59.951Z,17.3
2017-12-20T07:29:59.946Z,17.3
2017-12-20T07:30:59.944Z,17.3
2017-12-20T07:31:59.983Z,17.3
2017-12-20T07:32:59.982Z,17.3
2017-12-20T07:33:59.943Z,17.3
2017-12-20T07:34:59.959Z,17.3
2017-12-20T07:35:59.937Z,17.3
2017-12-20T07:36:59.960Z,17.3
2017-12-20T07:37:59.996Z,17.3
2017-12-20T07:38:59.986Z,17.2
2017-12-20T07:39:59.947Z,17.2
2017-12-20T07:40:59.948Z,17.3
2017-12-20T07:41:59.961Z,17.2
2017-12-20T07:42:59.977Z,17.2
2017-12-20T07:43:59.967Z,17.3
2017-12-20T07:44:59.963Z,17.3
2017-12-20T07:45:59.962Z,17.3
2017-12-20T07:46:59.960Z,17.3
2017-12-20T07:47:59.966Z,17.3
2017-12-20T07:48:59.962Z,17.3
2017-12-20T07:49:59.970Z,17.4
2017-12-20T07:50:59.956Z,17.4
2017-12-20T07:51:59.987Z,17.4
2017-12-20T07:52:59.991Z,17.4
2017-12-20T07:53:59.951Z,17.4
2017-12-20T07:54:59.994Z,17.4
2017-12-20T07:56:00.021Z,17.4
2017-12-20T07:56:59.959Z,17.4
2017-12-20T07:57:59.949Z,17.4
2017-12-20T07:58:59.946Z,17.4
2017-12-20T08:00:00.025Z,17.4
2017-12-20T08:00:59.945Z,17.4
2017-12-20T08:01:59.979Z,17.4
2017-12-20T08:02:59.970Z,17.4
2017-12-20T08:03:59.978Z,17.4
2017-12-20T08:04:59.950Z,17.4
2017-12-20T08:05:59.971Z,17.4
2017-12-20T08:06:59.998Z,17.4
2017-12-20T08:07:59.975Z,17.4
2017-12-20T08:08:59.961Z,17.4
2017-12-20T08:09:59.957Z,17.4
2017-12-20T08:10:59.960Z,17.4
2017-12-20T08:12:00.014Z,17.4
2017-12-20T08:12:59.978Z,17.4
2017-12-20T08:13:59.966Z,17.5
2017-12-20T08:14:59.974Z,17.4
2017-12-20T08:15:59.954Z,17.4
2017-12-20T08:16:59.978Z,17.5
2017-12-20T08:17:59.962Z,17.5
2017-12-20T08:18:59.962Z,17.5
2017-12-20T08:19:59.989Z,17.5
2017-12-20T08:20:59.976Z,17.5
2017-12-20T08:22:00.004Z,17.5
2017-12-20T08:22:59.980Z,17.5
2017-12-20T08:23:59.956Z,17.5
2017-12-20T08:24:59.981Z,17.5
2017-12-20T08:25:59.956Z,17.5
2017-12-20T08:27:00.045Z,17.5
2017-12-20T08:27:59.953Z,17.5
2017-12-20T08:28:59.978Z,17.5
2017-12-20T08:29:59.979Z,17.5
2017-12-20T08:31:00.238Z,17.5
2017-12-20T08:31:59.958Z,17.5
2017-12-20T08:32:59.995Z,17.5
2017-12-20T08:33:59.989Z,17.5
2017-12-20T08:34:59.980Z,17.5
2017-12-20T08:36:00.009Z,17.5
2017-12-20T08:36:59.984Z,17.5
2017-12-20T08:37:59.988Z,17.5
2017-12-20T08:38:59.987Z,17.5
2017-12-20T08:40:00.005Z,17.5
2017-12-20T08:40:59.978Z,17.6
2017-12-20T08:41:59.988Z,17.6
2017-12-20T08:42:59.984Z,17.6
2017-12-20T08:43:59.971Z,17.6
2017-12-20T08:45:00.021Z,17.6
2017-12-20T08:45:59.961Z,17.6
2017-12-20T08:46:59.969Z,17.6
2017-12-20T08:47:59.967Z,17.6
2017-12-20T08:48:59.964Z,17.6
2017-12-20T08:49:59.990Z,17.7
2017-12-20T08:51:00.010Z,17.7
2017-12-20T08:51:59.957Z,17.7
2017-12-20T08:53:59.969Z,17.7
2017-12-20T08:54:59.967Z,17.7
2017-12-20T08:55:59.998Z,17.7
2017-12-20T08:56:59.994Z,17.7
2017-12-20T08:58:00.079Z,17.7
2017-12-20T08:58:59.988Z,17.7
2017-12-20T08:59:59.969Z,17.8
2017-12-20T09:00:59.973Z,17.8
2017-12-20T09:02:00.343Z,17.8
2017-12-20T09:02:59.989Z,17.8
2017-12-20T09:03:59.986Z,17.8
2017-12-20T09:04:59.975Z,17.8
2017-12-20T09:05:59.970Z,17.8
2017-12-20T09:07:00.009Z,17.8
2017-12-20T09:07:59.993Z,17.8
2017-12-20T09:09:00.012Z,17.8
2017-12-20T09:09:59.979Z,17.8
2017-12-20T09:10:59.987Z,17.8
2017-12-20T09:12:00.006Z,17.8
2017-12-20T09:12:59.984Z,17.8
2017-12-20T09:13:59.993Z,17.8
2017-12-20T09:14:59.992Z,17.8
2017-12-20T09:16:00.001Z,17.8
2017-12-20T09:16:59.989Z,17.8
2017-12-20T09:17:59.980Z,17.8
2017-12-20T09:18:59.991Z,17.8
2017-12-20T09:19:59.974Z,17.8
2017-12-20T09:20:59.995Z,17.8
2017-12-20T09:22:00.009Z,17.8
2017-12-20T09:22:59.968Z,17.8
2017-12-20T09:23:59.996Z,17.8
2017-12-20T09:24:59.991Z,17.8
2017-12-20T09:25:59.990Z,17.7
2017-12-20T09:27:00.005Z,17.7
2017-12-20T09:28:00.001Z,17.7
2017-12-20T09:29:00.037Z,17.7
2017-12-20T09:29:59.982Z,17.7
2017-12-20T09:30:59.969Z,17.7
2017-12-20T09:32:00.008Z,17.7
2017-12-20T09:32:59.999Z,17.7
2017-12-20T09:33:59.999Z,17.7
2017-12-20T09:34:59.973Z,17.7
2017-12-20T09:35:59.988Z,17.7
2017-12-20T09:36:59.987Z,17.7
2017-12-20T09:38:00.275Z,17.7
2017-12-20T09:39:00.003Z,17.7
2017-12-20T09:40:00.009Z,17.7
2017-12-20T09:41:00.009Z,17.7
2017-12-20T09:41:59.986Z,17.7
2017-12-20T09:43:00.032Z,17.7
2017-12-20T09:44:00.007Z,17.7
2017-12-20T09:45:00.021Z,17.7
2017-12-20T09:46:00.011Z,17.7
2017-12-20T09:47:00.011Z,17.7
2017-12-20T09:47:59.987Z,17.7
2017-12-20T09:48:59.988Z,17.7
2017-12-20T09:50:00.041Z,17.8
2017-12-20T09:51:00.004Z,17.7
2017-12-20T09:52:00.014Z,17.7
2017-12-20T09:52:59.981Z,17.7
2017-12-20T09:54:00.003Z,17.7
2017-12-20T09:55:00.039Z,17.7
2017-12-20T09:56:00.005Z,17.7
2017-12-20T09:57:00.011Z,17.7
2017-12-20T09:58:00.016Z,17.7
2017-12-20T09:58:59.985Z,17.7
2017-12-20T10:00:00.070Z,17.7
2017-12-20T10:01:00.010Z,17.7
2017-12-20T10:02:00.058Z,17.7
2017-12-20T10:03:00.014Z,17.7
2017-12-20T10:03:59.993Z,17.7
2017-12-20T10:04:59.996Z,17.7
2017-12-20T10:06:00.013Z,17.7
2017-12-20T10:07:00.025Z,17.7
2017-12-20T10:07:59.995Z,17.7
2017-12-20T10:09:00.003Z,17.7
2017-12-20T10:10:00.039Z,17.7
2017-12-20T10:11:00.019Z,17.7
2017-12-20T10:12:00.015Z,17.7
2017-12-20T10:13:00.011Z,17.7
2017-12-20T10:14:00.020Z,17.7
2017-12-20T10:15:00.099Z,17.7
2017-12-20T10:16:00.053Z,17.7
2017-12-20T10:17:00.023Z,17.7
2017-12-20T10:18:00.016Z,17.7
2017-12-20T10:19:00.022Z,17.7
2017-12-20T10:19:59.997Z,17.8
2017-12-20T10:21:00.043Z,17.8
2017-12-20T10:22:00.027Z,17.8
2017-12-20T10:23:00.024Z,17.8
2017-12-20T10:24:00.011Z,17.8
2017-12-20T10:25:00.021Z,17.8
2017-12-20T10:26:00.071Z,17.8
2017-12-20T10:27:00.009Z,17.8
2017-12-20T10:28:00.010Z,17.8
2017-12-20T10:29:00.028Z,17.8
2017-12-20T10:30:00.016Z,17.8
2017-12-20T10:31:00.124Z,17.8
2017-12-20T10:33:00.038Z,17.8
2017-12-20T10:34:00.011Z,17.8
2017-12-20T10:35:00.040Z,17.8
2017-12-20T10:36:00.057Z,17.8
2017-12-20T10:37:00.024Z,17.8
2017-12-20T10:38:00.027Z,17.8
2017-12-20T10:39:00.016Z,17.8
2017-12-20T10:40:00.030Z,17.8
2017-12-20T10:41:00.048Z,17.8
2017-12-20T10:42:00.047Z,17.8
2017-12-20T10:43:00.033Z,17.9
2017-12-20T10:44:00.029Z,17.9
2017-12-20T10:45:00.036Z,17.9
2017-12-20T10:46:00.037Z,17.9
2017-12-20T10:47:00.339Z,17.9
2017-12-20T10:48:00.012Z,17.9
2017-12-20T10:49:00.038Z,17.9
2017-12-20T10:50:00.032Z,17.9
2017-12-20T10:51:19.069Z,18.2
2017-12-20T10:51:26.629Z,18.2
2017-12-20T10:51:51.407Z,18.2
2017-12-20T10:52:49.655Z,18.3
2017-12-20T10:53:49.617Z,18.2
2017-12-20T10:54:49.581Z,18.2
2017-12-20T10:55:49.606Z,18.2
2017-12-20T10:56:49.589Z,18.3
2017-12-20T10:57:49.983Z,18.3
2017-12-20T10:58:49.599Z,18.3
2017-12-20T10:59:49.599Z,18.3
2017-12-20T11:00:49.600Z,18.3
2017-12-20T11:01:49.589Z,18.3
2017-12-20T11:02:49.612Z,18.3
2017-12-20T11:03:23.788Z,18.3
2017-12-20T11:04:22.778Z,18.3
2017-12-20T11:05:22.735Z,18.3
2017-12-20T11:06:22.720Z,18.3
2017-12-20T11:07:22.699Z,18.4
2017-12-20T11:08:22.735Z,18.3
2017-12-20T11:09:22.724Z,18.3
2017-12-20T11:10:22.763Z,18.3
2017-12-20T11:11:22.794Z,18.3
2017-12-20T11:12:22.701Z,18.3
2017-12-20T11:13:22.732Z,18.3
2017-12-20T11:14:22.722Z,18.3
2017-12-20T11:15:22.954Z,18.2
2017-12-20T11:16:22.705Z,18.2
2017-12-20T11:17:22.728Z,18.2
2017-12-20T11:18:22.724Z,18.2
2017-12-20T11:19:22.723Z,18.3
2017-12-20T11:20:22.932Z,18.2
2017-12-20T11:21:22.718Z,18.2
2017-12-20T11:22:22.729Z,18.2
2017-12-20T11:23:22.716Z,18.2
2017-12-20T11:24:22.734Z,18.2
2017-12-20T11:25:22.747Z,18.2
2017-12-20T11:26:22.759Z,18.2
2017-12-20T11:27:22.757Z,18.2
2017-12-20T11:28:22.732Z,18.2
2017-12-20T11:29:22.731Z,18.2
2017-12-20T11:30:22.726Z,18.2
2017-12-20T11:31:22.752Z,18.2
2017-12-20T11:32:22.740Z,18.2
2017-12-20T11:33:22.724Z,18.2
2017-12-20T11:34:22.711Z,18.2
2017-12-20T11:35:22.783Z,18.1
2017-12-20T11:36:22.740Z,18.2
2017-12-20T11:37:22.731Z,18.2
2017-12-20T11:38:22.733Z,18.2
2017-12-20T11:39:22.724Z,18.2
2017-12-20T11:40:22.733Z,18.1
2017-12-20T11:41:22.760Z,18.2
2017-12-20T11:42:22.740Z,18.2
2017-12-20T11:43:22.747Z,18.2
2017-12-20T11:44:22.730Z,18.1
2017-12-20T11:45:22.752Z,18.2
2017-12-20T11:46:22.746Z,18.1
2017-12-20T11:47:22.741Z,18.1
2017-12-20T11:48:22.728Z,18.1
2017-12-20T11:49:22.768Z,18.1
2017-12-20T11:50:22.727Z,18.1
2017-12-20T11:51:22.746Z,18.1
2017-12-20T11:52:22.741Z,18.1
2017-12-20T11:53:22.725Z,18.1
2017-12-20T11:54:22.748Z,18.1
2017-12-20T11:55:22.751Z,18.1
2017-12-20T11:56:22.716Z,18.1
2017-12-20T11:57:22.754Z,18.1
2017-12-20T11:58:22.725Z,18.1
2017-12-20T11:59:22.766Z,18.1
2017-12-20T12:00:22.769Z,18.2
2017-12-20T12:01:22.757Z,18.1
2017-12-20T12:02:22.756Z,18.1
2017-12-20T12:03:22.763Z,18.1
2017-12-20T12:04:22.724Z,18.1
2017-12-20T12:05:22.753Z,18.1
2017-12-20T12:06:22.821Z,18.1
2017-12-20T12:07:22.734Z,18.1
2017-12-20T12:08:22.752Z,18.1
2017-12-20T12:09:22.752Z,18.1
2017-12-20T12:10:22.765Z,18.1
2017-12-20T12:11:22.732Z,18.1
2017-12-20T12:12:22.752Z,18.1
2017-12-20T12:13:22.762Z,18.1
2017-12-20T12:14:22.747Z,18.1
2017-12-20T12:15:22.813Z,18.1
2017-12-20T12:16:22.743Z,18.1
2017-12-20T12:17:22.768Z,18.1
2017-12-20T12:18:22.737Z,18.1
2017-12-20T12:19:22.748Z,18.1
2017-12-20T12:20:22.757Z,18.1
2017-12-20T12:21:22.755Z,18.1
2017-12-20T12:22:22.795Z,18.1
2017-12-20T12:23:22.751Z,18.1
2017-12-20T12:24:22.752Z,18.1
2017-12-20T12:25:22.762Z,18.1
2017-12-20T12:26:22.759Z,18.1
2017-12-20T12:27:22.766Z,18.1
2017-12-20T12:28:22.775Z,18.1
2017-12-20T12:29:22.744Z,18.1
2017-12-20T12:30:22.740Z,18.1
2017-12-20T12:31:22.766Z,18.1
2017-12-20T12:32:22.764Z,18.1
2017-12-20T12:33:23.070Z,18.1
2017-12-20T12:34:22.760Z,18.1
2017-12-20T12:35:22.758Z,18.1
2017-12-20T12:36:22.746Z,18.1
2017-12-20T12:37:22.819Z,18.1
2017-12-20T12:38:22.791Z,18.1
2017-12-20T12:39:22.751Z,18.1
2017-12-20T12:40:22.764Z,18.1
2017-12-20T12:41:22.740Z,18.1
2017-12-20T12:42:22.749Z,18.1
2017-12-20T12:43:22.772Z,18.1
2017-12-20T12:44:22.765Z,18.1
2017-12-20T12:45:22.960Z,18.1
2017-12-20T12:46:22.772Z,18.1
2017-12-20T12:47:22.768Z,18.1
2017-12-20T12:48:22.743Z,18.1
2017-12-20T12:49:22.772Z,18.1
2017-12-20T12:50:22.940Z,18.1
2017-12-20T12:51:22.747Z,18.1
2017-12-20T12:52:22.741Z,18.1
2017-12-20T12:53:22.758Z,18.1
2017-12-20T12:54:22.752Z,18.1
2017-12-20T12:55:22.793Z,18.1
2017-12-20T12:56:22.759Z,18.1
2017-12-20T12:57:22.766Z,18.1
2017-12-20T12:58:22.771Z,18.1
2017-12-20T12:59:22.768Z,18.1
2017-12-20T13:00:22.807Z,18.1
2017-12-20T13:01:22.773Z,18.1
2017-12-20T13:02:22.781Z,18.1
2017-12-20T13:03:22.789Z,18.1
2017-12-20T13:04:22.772Z,18.1
2017-12-20T13:05:22.814Z,18.1
2017-12-20T13:06:22.788Z,18.1
2017-12-20T13:07:22.755Z,18.1
2017-12-20T13:08:22.921Z,18.1
2017-12-20T13:09:22.758Z,18.1
2017-12-20T13:10:22.770Z,18.1
2017-12-20T13:11:22.777Z,18.1
2017-12-20T13:12:22.770Z,18.1
2017-12-20T13:13:22.804Z,18.1
2017-12-20T13:14:22.772Z,18.1
2017-12-20T13:15:22.766Z,18.1
2017-12-20T13:16:22.781Z,18.1
2017-12-20T13:17:22.762Z,18.1
2017-12-20T13:18:22.761Z,18.1
2017-12-20T13:19:23.102Z,18.1
2017-12-20T13:20:22.765Z,18.1
2017-12-20T13:21:22.788Z,18.1
2017-12-20T13:22:22.786Z,18.1